createdAt,value
2018-06-04T00:04:56.690Z,82.10
2018-06-04T00:09:59.738Z,81.50
2018-06-04T00:15:02.785Z,81.50
2018-06-04T00:20:05.877Z,81.80
2018-06-04T00:25:08.925Z,81.90
2018-06-04T00:30:12.942Z,82.20
2018-06-04T00:35:15.969Z,82.50
2018-06-04T00:40:19.950Z,82.80
2018-06-04T00:45:42.694Z,82.90
2018-06-04T00:50:45.977Z,81.70
2018-06-04T00:56:00.309Z,81.90
2018-06-04T01:01:03.373Z,81.80
2018-06-04T01:06:06.430Z,81.50
2018-06-04T01:11:10.014Z,81.60
2018-06-04T01:16:13.079Z,82.00
2018-06-04T01:21:17.154Z,82.10
2018-06-04T01:26:43.945Z,81.70
2018-06-04T01:31:47.433Z,81.60
2018-06-04T01:37:16.345Z,81.30
2018-06-04T01:42:19.877Z,80.70
2018-06-04T01:47:22.929Z,81.50
2018-06-04T01:52:25.977Z,81.20
2018-06-04T01:57:29.033Z,81.00
2018-06-04T02:02:39.561Z,81.20
2018-06-04T02:07:42.584Z,81.50
2018-06-04T02:12:45.649Z,81.30
2018-06-04T02:17:49.613Z,82.10
2018-06-04T02:27:56.026Z,82.20
2018-06-04T02:33:10.858Z,82.10
2018-06-04T02:38:14.222Z,81.90
2018-06-04T02:43:17.546Z,82.50
2018-06-04T02:53:23.434Z,82.50
2018-06-04T02:58:27.189Z,82.60
2018-06-04T03:03:30.487Z,82.70
2018-06-04T03:08:33.610Z,82.20
2018-06-04T03:13:36.648Z,82.10
2018-06-04T03:18:39.694Z,81.90
2018-06-04T03:23:42.754Z,82.10
2018-06-04T03:28:45.809Z,82.10
2018-06-04T03:38:51.800Z,82.40
2018-06-04T03:43:54.910Z,82.50
2018-06-04T03:48:57.953Z,82.60
2018-06-04T03:54:01.045Z,82.50
2018-06-04T04:04:07.926Z,83.00
2018-06-04T04:09:11.066Z,83.20
2018-06-04T04:14:14.125Z,83.30
2018-06-04T04:19:17.183Z,83.60
2018-06-04T04:24:20.219Z,83.70
2018-06-04T04:29:23.289Z,83.70
2018-06-04T04:34:26.436Z,84.00
2018-06-04T04:39:30.368Z,84.30
2018-06-04T04:44:33.406Z,84.20
2018-06-04T04:49:48.524Z,84.30
2018-06-04T04:54:51.581Z,83.70
2018-06-04T04:59:54.649Z,83.90
2018-06-04T05:04:57.681Z,84.20
2018-06-04T05:10:00.758Z,84.00
2018-06-04T05:15:03.813Z,83.60
2018-06-04T05:20:08.035Z,83.20
2018-06-04T05:25:11.102Z,82.80
2018-06-04T05:30:14.153Z,82.60
2018-06-04T05:35:17.193Z,82.10
2018-06-04T05:40:20.247Z,81.40
2018-06-04T05:45:23.298Z,81.00
2018-06-04T05:50:26.873Z,80.30
2018-06-04T05:55:29.957Z,79.50
2018-06-04T06:05:52.556Z,78.90
2018-06-04T06:10:55.594Z,78.80
2018-06-04T06:21:20.606Z,76.20
2018-06-04T06:26:23.890Z,77.60
2018-06-04T06:31:27.162Z,75.80
2018-06-04T06:36:30.209Z,76.20
2018-06-04T06:41:33.263Z,76.10
2018-06-04T06:46:36.309Z,75.30
2018-06-04T06:51:40.070Z,74.80
2018-06-04T06:56:43.117Z,74.70
2018-06-04T07:01:53.649Z,72.90
2018-06-04T07:06:56.658Z,73.30
2018-06-04T07:12:00.093Z,72.70
2018-06-04T07:17:03.146Z,72.00
2018-06-04T07:22:06.706Z,71.00
2018-06-04T07:27:29.610Z,70.80
2018-06-04T07:32:32.957Z,69.00
2018-06-04T07:37:36.335Z,68.10
2018-06-04T07:42:39.509Z,66.50
2018-06-04T07:47:42.624Z,66.20
2018-06-04T07:52:45.658Z,66.20
2018-06-04T07:57:48.702Z,63.40
2018-06-04T08:02:51.813Z,63.30
2018-06-04T08:07:54.866Z,61.60
2018-06-04T08:12:58.964Z,60.50
2018-06-04T08:18:02.230Z,59.40
2018-06-04T08:23:05.328Z,59.20
2018-06-04T08:28:08.381Z,59.40
2018-06-04T08:33:11.441Z,59.70
2018-06-04T08:38:15.036Z,59.40
2018-06-04T08:43:26.231Z,59.50
2018-06-04T08:48:29.266Z,59.80
2018-06-04T08:53:32.318Z,58.50
2018-06-04T08:58:35.366Z,57.30
2018-06-04T09:03:52.836Z,57.50
2018-06-04T09:09:20.609Z,56.00
2018-06-04T09:14:23.654Z,56.00
2018-06-04T09:19:27.482Z,56.00
2018-06-04T09:24:30.598Z,56.40
2018-06-04T09:29:33.729Z,56.50
2018-06-04T09:34:36.791Z,55.70
2018-06-04T09:39:40.325Z,55.30
2018-06-04T09:44:43.629Z,54.80
2018-06-04T09:49:46.670Z,54.90
2018-06-04T09:54:49.714Z,55.30
2018-06-04T09:59:52.758Z,54.60
2018-06-04T10:04:55.873Z,54.80
2018-06-04T10:09:58.971Z,54.10
2018-06-04T10:15:02.552Z,54.30
2018-06-04T10:20:05.890Z,53.30
2018-06-04T10:25:08.977Z,52.10
2018-06-04T10:30:12.218Z,52.10
2018-06-04T10:35:15.435Z,51.00
2018-06-04T10:40:18.474Z,50.30
2018-06-04T10:45:21.521Z,49.60
2018-06-04T10:50:24.579Z,50.50
2018-06-04T10:55:27.625Z,50.60
2018-06-04T11:00:30.694Z,50.80
2018-06-04T11:05:50.223Z,51.10
2018-06-04T11:10:53.454Z,51.80
2018-06-04T11:15:57.644Z,50.80
2018-06-04T11:21:00.741Z,50.80
2018-06-04T11:26:03.836Z,52.50
2018-06-04T11:31:07.218Z,51.70
2018-06-04T11:36:10.298Z,51.80
2018-06-04T11:41:13.558Z,51.80
2018-06-04T11:46:16.766Z,53.50
2018-06-04T11:51:20.055Z,52.30
2018-06-04T11:56:23.315Z,52.90
2018-06-04T12:01:26.353Z,52.60
2018-06-04T12:06:30.216Z,51.90
2018-06-04T12:11:33.328Z,51.80
2018-06-04T12:16:36.372Z,51.80
2018-06-04T12:22:00.356Z,53.50
2018-06-04T12:27:03.410Z,52.80
2018-06-04T12:32:07.119Z,53.40
2018-06-04T12:37:10.161Z,53.90
2018-06-04T12:42:13.204Z,53.50
2018-06-04T12:47:16.289Z,52.90
2018-06-04T12:52:19.351Z,53.00
2018-06-04T12:57:22.518Z,54.10
2018-06-04T13:02:25.565Z,55.10
2018-06-04T13:07:58.914Z,55.40
2018-06-04T13:13:02.158Z,55.70
2018-06-04T13:18:23.945Z,55.90
2018-06-04T13:23:27.005Z,55.70
2018-06-04T13:28:41.351Z,57.20
2018-06-04T13:33:44.445Z,56.90
2018-06-04T13:38:47.509Z,57.20
2018-06-04T13:43:50.557Z,56.10
2018-06-04T13:48:53.605Z,55.60
2018-06-04T13:54:03.205Z,55.30
2018-06-04T13:59:06.263Z,55.90
2018-06-04T14:04:09.308Z,55.60
2018-06-04T14:09:12.376Z,55.20
2018-06-04T14:19:18.476Z,55.60
2018-06-04T14:24:21.521Z,55.30
2018-06-04T14:29:28.962Z,55.30
2018-06-04T14:34:34.790Z,55.40
2018-06-04T14:39:37.997Z,55.30
2018-06-04T14:44:41.044Z,55.50
2018-06-04T14:49:44.101Z,55.50
2018-06-04T14:54:47.159Z,54.80
2018-06-04T14:59:50.294Z,55.50
2018-06-04T15:04:53.363Z,55.70
2018-06-04T15:10:03.285Z,55.60
2018-06-04T15:15:06.642Z,56.10
2018-06-04T15:20:09.685Z,55.70
2018-06-04T15:25:12.736Z,55.50
2018-06-04T15:30:15.814Z,56.10
2018-06-04T15:40:21.829Z,55.80
2018-06-04T15:50:27.749Z,56.20
2018-06-04T15:55:30.808Z,55.70
2018-06-04T16:00:33.853Z,55.30
2018-06-04T16:05:36.974Z,55.20
2018-06-04T16:11:03.492Z,55.00
2018-06-04T16:16:07.093Z,54.30
2018-06-04T16:21:10.190Z,54.50
2018-06-04T16:26:13.317Z,55.00
2018-06-04T16:31:16.397Z,55.50
2018-06-04T16:36:19.466Z,55.40
2018-06-04T16:41:22.520Z,55.70
2018-06-04T16:46:34.958Z,56.30
2018-06-04T16:51:40.628Z,56.70
2018-06-04T16:56:43.672Z,56.80
2018-06-04T17:01:59.901Z,57.00
2018-06-04T17:07:02.941Z,56.90
2018-06-04T17:12:05.994Z,57.40
2018-06-04T17:17:09.057Z,57.50
2018-06-04T17:22:12.137Z,57.50
2018-06-04T17:27:15.191Z,57.30
2018-06-04T17:32:18.303Z,57.20
2018-06-04T17:37:21.369Z,57.30
2018-06-04T17:42:24.457Z,57.30
2018-06-04T17:47:33.593Z,57.30
2018-06-04T17:52:36.661Z,57.60
2018-06-04T17:57:39.801Z,57.60
2018-06-04T18:02:45.166Z,57.30
2018-06-04T18:07:50.994Z,58.00
2018-06-04T18:12:54.264Z,58.80
2018-06-04T18:17:58.824Z,59.00
2018-06-04T18:23:02.305Z,59.60
2018-06-04T18:28:30.333Z,60.20
2018-06-04T18:33:37.592Z,60.90
2018-06-04T18:38:40.811Z,61.00
2018-06-04T18:43:44.137Z,61.30
2018-06-04T18:48:47.217Z,62.30
2018-06-04T18:53:50.337Z,62.30
2018-06-04T18:58:53.396Z,62.70
2018-06-04T19:03:56.468Z,63.00
2018-06-04T19:09:02.643Z,63.40
2018-06-04T19:14:05.969Z,63.40
2018-06-04T19:24:14.549Z,64.20
2018-06-04T19:29:17.705Z,64.50
2018-06-04T19:34:20.772Z,64.70
2018-06-04T19:39:24.096Z,65.20
2018-06-04T19:44:34.569Z,65.50
2018-06-04T19:50:11.287Z,65.90
2018-06-04T19:55:14.341Z,66.30
2018-06-04T20:00:17.397Z,66.50
2018-06-04T20:05:20.453Z,67.00
2018-06-04T20:10:23.520Z,67.30
2018-06-04T20:15:26.637Z,67.80
2018-06-04T20:20:29.765Z,68.40
2018-06-04T20:25:32.755Z,68.80
2018-06-04T20:30:35.846Z,69.20
2018-06-04T20:35:40.896Z,69.60
2018-06-04T20:40:43.953Z,69.90
2018-06-04T20:45:47.140Z,70.30
2018-06-04T20:50:50.197Z,70.60
2018-06-04T20:56:04.343Z,70.90
2018-06-04T21:01:07.533Z,71.10
2018-06-04T21:06:10.592Z,72.20
2018-06-04T21:11:13.655Z,72.30
2018-06-04T21:16:16.714Z,72.50
2018-06-04T21:21:19.796Z,72.70
2018-06-04T21:26:22.937Z,73.00
2018-06-04T21:31:26.305Z,73.10
2018-06-04T21:36:29.369Z,73.20
2018-06-04T21:41:32.428Z,73.40
2018-06-04T21:46:35.593Z,73.50
2018-06-04T21:51:38.649Z,73.40
2018-06-04T21:56:46.961Z,73.60
2018-06-04T22:01:50.006Z,73.70
2018-06-04T22:06:53.120Z,73.80
2018-06-04T22:11:56.177Z,74.00
2018-06-04T22:16:59.278Z,74.20
2018-06-04T22:22:02.296Z,74.30
2018-06-04T22:27:05.450Z,73.70
2018-06-04T22:32:08.449Z,74.40
2018-06-04T22:37:11.495Z,74.50
2018-06-04T22:42:14.540Z,74.30
2018-06-04T22:47:17.598Z,74.80
2018-06-04T22:52:20.666Z,75.00
2018-06-04T22:57:23.733Z,75.10
2018-06-04T23:02:27.868Z,75.30
2018-06-04T23:07:31.030Z,75.20
2018-06-04T23:12:34.076Z,75.50
2018-06-04T23:17:37.134Z,75.90
2018-06-04T23:22:40.196Z,76.00
2018-06-04T23:27:43.243Z,76.20
2018-06-04T23:32:46.300Z,76.50
2018-06-04T23:37:49.360Z,77.40
2018-06-04T23:42:52.421Z,77.80
2018-06-04T23:47:55.469Z,77.70
2018-06-04T23:52:58.569Z,77.50
2018-06-04T23:58:01.633Z,77.20
